Yerington, Nevada
Current Conditions -  °F | °C
As of 6:35 AM on Monday 20 Oct 2014 (Local Time) from KMEV Reporting Station
Clear Clear  
Wind Chill: 37°   Ceiling: Unl
Heat Index: 37°   Visibility: 10mi
Dew Point: 27°   Wind: 0mph
Humidity: 65%   Direction: NA
Pressure: 29.98"   Gusts: NA
Location:  38.99°N, 119.16°W
Report Text: KMEV 201335Z AUTO 00000KT 10SM CLR 03/M03 A2998 RMK AO2
Loading
Personal Weather Stations






























Interactive Weather Map
Tropical Storm Tracking
New forecast layout! Learn more

10-Day Weather Forecast

Advertisements
Track Severe Weather on mobile